createdAt,value
2019-03-10T00:02:05.203Z,3.23
2019-03-10T00:04:37.026Z,3.60
2019-03-10T00:07:10.006Z,3.00
2019-03-10T00:09:43.382Z,2.90
2019-03-10T00:12:15.437Z,3.50
2019-03-10T00:14:47.357Z,3.80
2019-03-10T00:17:19.113Z,3.20
2019-03-10T00:19:52.496Z,3.13
2019-03-10T00:22:24.723Z,3.50
2019-03-10T00:24:56.750Z,2.90
2019-03-10T00:27:28.889Z,2.73
2019-03-10T00:30:00.942Z,3.63
2019-03-10T00:32:34.565Z,3.37
2019-03-10T00:35:07.084Z,3.53
2019-03-10T00:37:39.251Z,3.30
2019-03-10T00:40:58.112Z,3.57
2019-03-10T00:44:38.519Z,3.23
2019-03-10T00:48:22.634Z,3.10
2019-03-10T00:51:53.839Z,3.67
2019-03-10T00:54:27.193Z,3.60
2019-03-10T00:57:00.999Z,4.10
2019-03-10T00:59:34.461Z,4.57
2019-03-10T01:02:06.695Z,4.27
2019-03-10T01:04:38.918Z,4.17
2019-03-10T01:07:11.387Z,4.10
2019-03-10T01:09:44.478Z,3.60
2019-03-10T01:12:16.732Z,4.53
2019-03-10T01:14:50.935Z,3.73
2019-03-10T01:20:24.057Z,3.70
2019-03-10T01:23:14.852Z,3.90
2019-03-10T01:25:46.623Z,3.50
2019-03-10T01:28:18.522Z,4.07
2019-03-10T01:31:19.570Z,3.77
2019-03-10T01:34:29.195Z,3.60
2019-03-10T01:37:01.018Z,3.60
2019-03-10T01:39:33.098Z,3.30
2019-03-10T01:42:04.933Z,4.10
2019-03-10T01:44:38.545Z,4.20
2019-03-10T01:47:12.292Z,4.87
2019-03-10T01:49:48.825Z,4.20
2019-03-10T01:52:20.792Z,5.07
2019-03-10T01:54:52.718Z,4.80
2019-03-10T01:57:25.672Z,5.10
2019-03-10T01:59:57.709Z,4.37
2019-03-10T02:02:30.579Z,3.97
2019-03-10T02:05:02.387Z,3.60
2019-03-10T02:07:34.101Z,4.53
2019-03-10T02:10:08.774Z,4.63
2019-03-10T02:12:40.563Z,4.43
2019-03-10T02:15:15.247Z,4.47
2019-03-10T02:17:47.364Z,4.30
2019-03-10T02:20:20.315Z,3.83
2019-03-10T02:22:52.428Z,4.57
2019-03-10T02:25:25.686Z,3.53
2019-03-10T02:27:57.629Z,3.83
2019-03-10T02:30:29.379Z,3.37
2019-03-10T02:33:02.271Z,3.67
2019-03-10T02:35:34.169Z,3.67
2019-03-10T02:38:06.069Z,3.83
2019-03-10T02:40:37.899Z,3.90
2019-03-10T02:43:09.633Z,3.77
2019-03-10T02:45:41.379Z,3.83
2019-03-10T02:48:13.341Z,3.27
2019-03-10T02:50:58.976Z,3.97
2019-03-10T02:53:30.730Z,3.37
2019-03-10T02:56:02.543Z,3.57
2019-03-10T03:51:29.356Z,3.43
2019-03-10T03:54:01.190Z,3.17
2019-03-10T03:56:34.175Z,3.07
2019-03-10T03:59:07.123Z,2.50
2019-03-10T04:01:43.133Z,4.07
2019-03-10T04:04:16.210Z,2.60
2019-03-10T04:06:48.055Z,2.67
2019-03-10T04:09:19.821Z,2.60
2019-03-10T04:11:51.644Z,2.17
2019-03-10T04:14:23.402Z,2.50
2019-03-10T04:16:55.107Z,2.30
2019-03-10T04:19:27.962Z,2.60
2019-03-10T04:21:59.767Z,2.57
2019-03-10T04:24:31.519Z,2.73
2019-03-10T04:27:03.273Z,2.17
2019-03-10T04:29:35.042Z,3.00
2019-03-10T04:32:08.026Z,2.77
2019-03-10T04:34:39.738Z,2.23
2019-03-10T04:37:11.517Z,2.60
2019-03-10T04:39:43.302Z,2.20
2019-03-10T04:42:15.026Z,2.13
2019-03-10T04:44:46.978Z,2.17
2019-03-10T04:47:18.811Z,2.83
2019-03-10T04:49:50.764Z,3.03
2019-03-10T04:52:24.024Z,2.13
2019-03-10T04:55:26.955Z,2.20
2019-03-10T04:58:12.240Z,2.30
2019-03-10T05:00:50.204Z,1.80
2019-03-10T05:03:29.527Z,2.50
2019-03-10T05:06:03.573Z,3.43
2019-03-10T05:08:35.347Z,2.73
2019-03-10T05:11:07.209Z,2.70
2019-03-10T05:13:38.998Z,2.30
2019-03-10T05:16:10.851Z,2.87
2019-03-10T05:18:43.701Z,2.93
2019-03-10T05:21:15.513Z,3.53
2019-03-10T05:23:47.616Z,2.80
2019-03-10T05:26:19.468Z,3.13
2019-03-10T05:28:51.434Z,3.33
2019-03-10T05:31:24.909Z,3.00
2019-03-10T05:33:56.634Z,3.03
2019-03-10T05:36:28.495Z,2.80
2019-03-10T05:39:02.005Z,3.10
2019-03-10T05:41:33.781Z,3.10
2019-03-10T05:44:05.577Z,2.50
2019-03-10T05:46:37.297Z,3.47
2019-03-10T05:49:12.027Z,2.83
2019-03-10T05:51:44.812Z,2.53
2019-03-10T05:54:16.546Z,3.20
2019-03-10T05:56:48.477Z,2.87
2019-03-10T05:59:20.376Z,3.07
2019-03-10T06:01:54.892Z,4.87
2019-03-10T06:04:26.679Z,3.77
2019-03-10T06:06:58.418Z,4.30
2019-03-10T06:09:30.145Z,3.33
2019-03-10T06:12:01.814Z,3.23
2019-03-10T06:14:33.527Z,1.83
2019-03-10T06:17:05.252Z,2.50
2019-03-10T06:19:36.940Z,2.13
2019-03-10T06:22:09.745Z,2.37
2019-03-10T06:24:41.609Z,2.17
2019-03-10T06:27:13.317Z,2.40
2019-03-10T06:29:45.016Z,2.57
2019-03-10T06:32:16.850Z,2.97
2019-03-10T06:34:49.997Z,3.13
2019-03-10T06:37:21.760Z,2.73
2019-03-10T06:39:53.493Z,2.37
2019-03-10T06:42:25.175Z,2.53
2019-03-10T06:44:56.858Z,2.37
2019-03-10T06:47:28.596Z,2.67
2019-03-10T06:50:00.400Z,3.17
2019-03-10T06:52:32.842Z,2.10
2019-03-10T06:55:04.531Z,1.93
2019-03-10T06:57:36.362Z,1.73
2019-03-10T07:00:11.011Z,1.73
2019-03-10T07:02:42.732Z,1.40
2019-03-10T07:05:15.926Z,1.80
2019-03-10T07:07:47.712Z,1.60
2019-03-10T07:10:19.353Z,1.50
2019-03-10T07:12:51.058Z,1.63
2019-03-10T07:15:22.769Z,1.67
2019-03-10T07:17:54.494Z,1.90
2019-03-10T07:20:26.217Z,1.57
2019-03-10T07:22:57.885Z,1.37
2019-03-10T07:25:29.590Z,1.47
2019-03-10T07:28:21.329Z,1.10
2019-03-10T07:30:59.306Z,1.00
2019-03-10T07:33:49.983Z,1.33
2019-03-10T07:36:31.928Z,1.03
2019-03-10T07:39:27.938Z,1.40
2019-03-10T07:42:18.826Z,1.10
2019-03-10T07:45:12.500Z,1.40
2019-03-10T07:48:06.002Z,1.53
2019-03-10T07:50:56.658Z,1.57
2019-03-10T07:53:37.615Z,1.33
2019-03-10T07:56:17.380Z,1.40
2019-03-10T07:59:06.707Z,1.40
2019-03-10T08:01:58.024Z,1.30
2019-03-10T08:04:50.347Z,1.10
2019-03-10T08:07:41.206Z,1.53
2019-03-10T08:10:45.888Z,1.23
2019-03-10T08:13:35.525Z,1.53
2019-03-10T08:16:22.656Z,1.20
2019-03-10T08:19:19.123Z,1.03
2019-03-10T08:22:08.439Z,1.17
2019-03-10T08:24:58.879Z,1.10
2019-03-10T08:28:02.021Z,1.00
2019-03-10T08:30:51.456Z,1.23
2019-03-10T08:33:45.076Z,1.20
2019-03-10T08:36:35.073Z,1.03
2019-03-10T08:39:32.978Z,1.27
2019-03-10T08:42:25.340Z,1.47
2019-03-10T08:45:19.320Z,1.13
2019-03-10T08:48:13.871Z,1.00
2019-03-10T08:51:09.855Z,1.17
2019-03-10T08:53:50.310Z,1.23
2019-03-10T08:56:59.638Z,0.97
2019-03-10T08:59:49.105Z,1.03
2019-03-10T09:02:50.511Z,1.17
2019-03-10T09:05:40.453Z,1.20
2019-03-10T09:08:38.067Z,1.20
2019-03-10T09:11:36.003Z,0.93
2019-03-10T09:14:31.314Z,1.20
2019-03-10T09:17:25.125Z,1.50
2019-03-10T09:20:05.720Z,1.10
2019-03-10T09:22:44.719Z,1.00
2019-03-10T09:25:34.300Z,1.10
2019-03-10T09:28:31.189Z,0.80
2019-03-10T09:31:21.968Z,1.27
2019-03-10T09:34:21.737Z,1.30
2019-03-10T09:37:06.988Z,1.17
2019-03-10T09:40:13.208Z,1.67
2019-03-10T09:43:12.975Z,1.20
2019-03-10T09:46:04.851Z,1.40
2019-03-10T09:48:58.501Z,1.50
2019-03-10T09:51:49.199Z,1.50
2019-03-10T09:54:47.666Z,1.23
2019-03-10T09:57:44.721Z,1.50
2019-03-10T10:00:33.944Z,1.53
2019-03-10T10:03:28.137Z,2.53
2019-03-10T10:06:07.777Z,1.50
2019-03-10T10:08:54.912Z,2.07
2019-03-10T10:11:40.736Z,1.47
2019-03-10T10:14:31.509Z,1.40
2019-03-10T10:17:13.992Z,1.33
2019-03-10T10:20:07.752Z,1.70
2019-03-10T10:22:46.658Z,1.70
2019-03-10T10:25:23.879Z,1.40
2019-03-10T10:28:05.019Z,1.90
2019-03-10T10:31:10.358Z,1.87
2019-03-10T10:34:16.066Z,1.73
2019-03-10T10:37:05.592Z,1.80
2019-03-10T10:39:54.851Z,1.73
2019-03-10T10:42:47.212Z,2.27
2019-03-10T10:45:43.774Z,1.73
2019-03-10T10:48:29.868Z,1.77
2019-03-10T10:51:36.125Z,2.20
2019-03-10T10:54:26.844Z,1.70
2019-03-10T10:57:27.742Z,2.07
2019-03-10T11:00:07.124Z,1.63
2019-03-10T11:03:12.191Z,1.60
2019-03-10T11:05:54.136Z,1.80
2019-03-10T11:08:36.781Z,1.87
2019-03-10T11:11:30.247Z,2.03
2019-03-10T11:14:26.158Z,2.03
2019-03-10T11:17:15.893Z,2.40
2019-03-10T11:19:58.845Z,2.00
2019-03-10T11:22:53.450Z,2.50
2019-03-10T11:25:48.895Z,2.87
2019-03-10T11:28:48.491Z,2.03
2019-03-10T11:31:43.481Z,3.00
2019-03-10T11:34:41.611Z,3.73
2019-03-10T11:37:32.143Z,2.40
2019-03-10T11:40:39.944Z,2.37
2019-03-10T11:43:22.815Z,1.80
2019-03-10T11:46:35.086Z,2.30
2019-03-10T11:49:33.282Z,2.30
2019-03-10T11:52:24.290Z,2.07
2019-03-10T11:55:15.001Z,2.30
2019-03-10T11:58:08.419Z,2.17
2019-03-10T12:00:46.412Z,1.90
2019-03-10T12:03:40.170Z,2.07
2019-03-10T12:06:37.122Z,2.87
2019-03-10T12:09:36.755Z,2.60
2019-03-10T12:12:08.917Z,2.50
2019-03-10T12:14:41.670Z,2.33
2019-03-10T12:17:22.698Z,3.00
2019-03-10T12:20:10.127Z,3.57
2019-03-10T12:22:47.969Z,2.97
2019-03-10T12:25:23.744Z,2.83
2019-03-10T12:27:58.193Z,2.30
2019-03-10T12:30:30.237Z,2.57
2019-03-10T12:33:09.004Z,2.57
2019-03-10T12:35:44.259Z,3.37
2019-03-10T12:38:16.065Z,2.77
2019-03-10T12:40:49.722Z,2.40
2019-03-10T12:43:23.498Z,2.93
2019-03-10T12:45:58.096Z,2.53
2019-03-10T12:48:31.289Z,2.20
2019-03-10T12:51:03.404Z,2.40
2019-03-10T12:53:35.296Z,2.47
2019-03-10T12:56:08.918Z,2.27
2019-03-10T12:58:42.606Z,2.47
2019-03-10T13:01:14.537Z,2.00
2019-03-10T13:03:58.169Z,2.20
2019-03-10T13:06:21.353Z,2.23
2019-03-10T13:08:53.195Z,1.97
2019-03-10T13:11:25.109Z,1.90
2019-03-10T13:13:58.292Z,2.10
2019-03-10T13:16:30.109Z,3.20
2019-03-10T13:19:02.026Z,2.60
2019-03-10T13:21:33.893Z,2.40
2019-03-10T13:24:05.874Z,2.80
2019-03-10T13:26:38.006Z,2.33
2019-03-10T13:29:10.178Z,2.23
2019-03-10T13:31:41.961Z,2.33
2019-03-10T13:34:13.877Z,2.63
2019-03-10T13:36:45.733Z,2.70
2019-03-10T13:39:17.544Z,1.93
2019-03-10T13:41:49.398Z,2.53
2019-03-10T13:44:21.240Z,2.60
2019-03-10T13:46:55.735Z,1.60
2019-03-10T13:49:29.934Z,1.87
2019-03-10T13:52:03.928Z,1.50
2019-03-10T13:54:35.796Z,1.60
2019-03-10T13:57:07.805Z,1.40
2019-03-10T13:59:39.689Z,1.10
2019-03-10T14:02:12.991Z,1.40
2019-03-10T14:04:44.920Z,1.30
2019-03-10T14:07:16.726Z,2.00
2019-03-10T14:09:48.598Z,1.37
2019-03-10T14:12:20.455Z,1.40
2019-03-10T14:14:52.187Z,1.60
2019-03-10T14:17:24.015Z,1.63
2019-03-10T14:19:55.852Z,1.50
2019-03-10T14:22:30.651Z,1.37
2019-03-10T14:25:02.722Z,1.30
2019-03-10T14:27:34.574Z,2.03
2019-03-10T14:30:07.947Z,2.60
2019-03-10T14:32:40.027Z,2.70
2019-03-10T14:35:12.450Z,2.10
2019-03-10T14:37:44.358Z,1.50
2019-03-10T14:40:17.474Z,1.20
2019-03-10T14:42:49.306Z,1.37
2019-03-10T14:45:21.778Z,1.40
2019-03-10T14:47:54.600Z,1.10
2019-03-10T14:50:27.794Z,1.40
2019-03-10T14:52:59.684Z,1.20
2019-03-10T14:55:31.629Z,1.13
2019-03-10T14:58:04.793Z,1.30
2019-03-10T15:00:36.699Z,1.17
2019-03-10T15:03:08.690Z,1.00
2019-03-10T15:05:41.752Z,1.20
2019-03-10T15:08:13.800Z,1.10
2019-03-10T15:10:45.763Z,1.00
2019-03-10T15:13:17.680Z,1.20
2019-03-10T15:15:49.884Z,1.20
2019-03-10T15:18:21.700Z,1.20
2019-03-10T15:20:54.697Z,2.07
2019-03-10T15:23:26.661Z,1.20
2019-03-10T15:26:00.009Z,1.20
2019-03-10T15:28:34.953Z,0.90
2019-03-10T15:31:06.812Z,1.53
2019-03-10T15:33:40.558Z,0.90
2019-03-10T15:36:20.176Z,0.93
2019-03-10T15:38:47.618Z,0.97
2019-03-10T15:41:38.554Z,0.70
2019-03-10T15:44:10.453Z,0.60
2019-03-10T15:46:42.370Z,1.03
2019-03-10T15:49:14.466Z,0.77
2019-03-10T15:51:46.425Z,1.00
2019-03-10T15:54:18.330Z,0.80
2019-03-10T15:56:50.374Z,0.63
2019-03-10T15:59:23.862Z,0.70
2019-03-10T16:01:57.165Z,0.70
2019-03-10T16:04:30.193Z,0.63
2019-03-10T16:07:02.868Z,0.80
2019-03-10T16:09:36.654Z,0.60
2019-03-10T16:12:08.511Z,0.50
2019-03-10T16:14:40.391Z,0.40
2019-03-10T16:17:12.231Z,0.30
2019-03-10T16:19:45.191Z,0.27
2019-03-10T16:22:18.118Z,0.30
2019-03-10T16:24:50.181Z,0.30
2019-03-10T16:27:22.110Z,0.40
2019-03-10T16:29:53.963Z,0.40
2019-03-10T16:32:26.029Z,0.60
2019-03-10T16:34:58.034Z,0.40
2019-03-10T16:37:30.036Z,0.40
2019-03-10T16:40:01.853Z,0.27
2019-03-10T16:42:34.995Z,0.30
2019-03-10T16:45:08.749Z,0.30
2019-03-10T16:47:40.589Z,0.27
2019-03-10T16:50:14.524Z,0.30
2019-03-10T16:52:47.900Z,2.23
2019-03-10T16:55:20.999Z,0.93
2019-03-10T16:57:53.107Z,0.60
2019-03-10T17:00:31.255Z,0.50
2019-03-10T17:03:03.141Z,0.40
2019-03-10T17:05:36.288Z,0.30
2019-03-10T17:08:08.361Z,0.30
2019-03-10T17:10:40.261Z,0.40
2019-03-10T17:13:12.043Z,0.30
2019-03-10T17:15:44.085Z,0.37
2019-03-10T17:18:15.922Z,0.50
2019-03-10T17:20:47.815Z,0.30
2019-03-10T17:23:19.878Z,0.40
2019-03-10T17:25:52.063Z,0.30
2019-03-10T17:28:23.991Z,0.40
2019-03-10T17:30:55.987Z,0.40
2019-03-10T17:33:27.970Z,0.40
2019-03-10T17:35:59.890Z,0.40
2019-03-10T17:38:50.778Z,0.53
2019-03-10T17:41:22.804Z,0.50
2019-03-10T17:43:54.731Z,0.60
2019-03-10T17:46:26.735Z,0.60
2019-03-10T17:48:58.841Z,0.60
2019-03-10T17:51:34.926Z,0.70
2019-03-10T17:54:06.871Z,0.60
2019-03-10T17:56:39.023Z,0.70
2019-03-10T17:59:12.191Z,0.60
2019-03-10T18:01:44.457Z,0.80
2019-03-10T18:04:17.916Z,0.70
2019-03-10T18:06:51.041Z,0.70
2019-03-10T18:09:23.251Z,0.70
2019-03-10T18:11:56.423Z,0.70
2019-03-10T18:14:28.322Z,0.90
2019-03-10T18:17:01.951Z,0.80
2019-03-10T18:19:34.778Z,1.10
2019-03-10T18:22:06.911Z,1.10
2019-03-10T18:24:40.750Z,1.17
2019-03-10T18:27:12.773Z,1.10
2019-03-10T18:29:46.457Z,1.37
2019-03-10T18:32:18.484Z,1.20
2019-03-10T18:34:52.039Z,0.80
2019-03-10T18:37:23.878Z,0.70
2019-03-10T18:39:56.981Z,0.80
2019-03-10T18:42:28.940Z,0.93
2019-03-10T18:45:02.337Z,0.90
2019-03-10T18:47:36.035Z,0.93
2019-03-10T18:50:09.345Z,0.60
2019-03-10T18:52:41.333Z,0.90
2019-03-10T18:55:14.401Z,0.90
2019-03-10T18:57:48.324Z,0.87
2019-03-10T19:00:22.632Z,0.90
2019-03-10T19:02:54.818Z,0.93
2019-03-10T19:05:26.979Z,0.70
2019-03-10T19:07:59.033Z,0.80
2019-03-10T19:10:31.198Z,0.80
2019-03-10T19:13:03.236Z,0.60
2019-03-10T19:15:35.343Z,0.50
2019-03-10T19:18:07.343Z,0.53
2019-03-10T19:20:42.528Z,0.60
2019-03-10T19:23:17.617Z,0.80
2019-03-10T19:25:49.640Z,0.60
2019-03-10T19:28:25.920Z,0.60
2019-03-10T19:30:57.850Z,0.47
2019-03-10T19:33:29.640Z,0.60
2019-03-10T19:36:01.737Z,0.60
2019-03-10T19:38:35.130Z,0.60
2019-03-10T19:41:07.706Z,0.50
2019-03-10T19:43:41.354Z,0.70
2019-03-10T19:46:13.375Z,0.70
2019-03-10T19:48:45.211Z,0.77
2019-03-10T19:51:17.217Z,0.80
2019-03-10T19:53:49.196Z,0.70
2019-03-10T19:56:21.277Z,0.80
2019-03-10T19:58:53.209Z,0.77
2019-03-10T20:01:26.111Z,1.10
2019-03-10T20:03:58.042Z,0.90
2019-03-10T20:06:31.231Z,0.80
2019-03-10T20:09:04.804Z,1.20
2019-03-10T20:11:37.785Z,1.00
2019-03-10T20:14:09.618Z,1.27
2019-03-10T20:16:41.685Z,0.57
2019-03-10T20:19:17.431Z,0.70
2019-03-10T20:21:51.043Z,8.43
2019-03-10T20:24:24.445Z,4.30
2019-03-10T20:26:56.407Z,1.50
2019-03-10T20:29:28.402Z,0.97
2019-03-10T20:32:13.137Z,0.60
2019-03-10T20:34:39.039Z,0.60
2019-03-10T20:37:10.989Z,0.60
2019-03-10T20:39:43.271Z,0.70
2019-03-10T20:42:15.360Z,0.70
2019-03-10T20:44:47.540Z,1.10
2019-03-10T20:47:19.534Z,1.40
2019-03-10T20:49:51.921Z,1.00
2019-03-10T20:52:24.025Z,1.20
2019-03-10T20:54:56.198Z,1.07
2019-03-10T20:57:28.090Z,1.00
2019-03-10T21:00:01.176Z,1.00
2019-03-10T21:02:36.149Z,1.10
2019-03-10T21:05:09.964Z,0.80
2019-03-10T21:07:42.017Z,0.77
2019-03-10T21:10:16.606Z,0.83
2019-03-10T21:12:48.592Z,1.17
2019-03-10T21:15:21.622Z,1.60
2019-03-10T21:17:56.039Z,1.27
2019-03-10T21:20:29.279Z,1.30
2019-03-10T21:23:02.927Z,1.70
2019-03-10T21:25:34.958Z,1.60
2019-03-10T21:28:06.889Z,1.40
2019-03-10T21:30:38.799Z,1.77
2019-03-10T21:33:11.001Z,1.70
2019-03-10T21:35:42.963Z,1.53
2019-03-10T21:38:15.013Z,1.60
2019-03-10T21:40:50.743Z,1.73
2019-03-10T21:43:22.883Z,1.30
2019-03-10T21:45:54.720Z,1.40
2019-03-10T21:48:26.579Z,1.03
2019-03-10T21:50:59.599Z,1.10
2019-03-10T21:53:31.636Z,1.03
2019-03-10T21:56:03.459Z,1.10
2019-03-10T21:58:35.527Z,1.03
2019-03-10T22:01:07.495Z,1.30
2019-03-10T22:03:39.513Z,0.90
2019-03-10T22:06:12.727Z,1.20
2019-03-10T22:08:45.663Z,0.97
2019-03-10T22:11:17.602Z,1.07
2019-03-10T22:13:49.533Z,1.30
2019-03-10T22:16:21.377Z,1.07
2019-03-10T22:18:53.258Z,1.23
2019-03-10T22:21:25.620Z,1.40
2019-03-10T22:23:59.593Z,0.97
2019-03-10T22:26:32.275Z,0.80
2019-03-10T22:29:04.155Z,0.97
2019-03-10T22:31:36.117Z,1.10
2019-03-10T22:34:09.363Z,0.93
2019-03-10T22:36:41.382Z,1.17
2019-03-10T22:39:13.193Z,1.00
2019-03-10T22:41:46.432Z,0.90
2019-03-10T22:44:18.553Z,1.30
2019-03-10T22:46:50.821Z,1.00
2019-03-10T22:49:22.819Z,1.00
2019-03-10T22:51:54.602Z,1.10
2019-03-10T22:54:26.503Z,1.70
2019-03-10T22:56:58.435Z,1.60
2019-03-10T22:59:30.261Z,1.57
2019-03-10T23:02:03.382Z,1.20
2019-03-10T23:04:35.405Z,1.60
2019-03-10T23:07:07.579Z,1.33
2019-03-10T23:09:39.337Z,1.60
2019-03-10T23:12:11.305Z,1.90
2019-03-10T23:14:44.440Z,1.93
2019-03-10T23:17:16.203Z,2.10
2019-03-10T23:19:47.999Z,2.10
2019-03-10T23:22:19.899Z,2.67
2019-03-10T23:25:12.331Z,1.63
2019-03-10T23:27:44.151Z,2.30
2019-03-10T23:30:16.595Z,1.80
2019-03-10T23:32:48.702Z,1.80
2019-03-10T23:35:22.428Z,1.90
2019-03-10T23:37:54.231Z,1.83
2019-03-10T23:40:26.198Z,1.17
2019-03-10T23:42:57.972Z,1.30
2019-03-10T23:45:29.806Z,1.20
2019-03-10T23:48:01.741Z,1.40
2019-03-10T23:50:33.756Z,1.80
2019-03-10T23:53:05.607Z,1.20
2019-03-10T23:55:37.389Z,1.63
2019-03-10T23:58:09.259Z,1.83
